Flugplatz Eichstätt

Für EDPE sind keine METAR/TAF Berichte vorhanden.
Es werden die Flugwettermeldungen vom Flugplatz Neuburg Airport in 18 km Entfernung angezeigt.

Bericht für ETSN

vom 02.12. um 01:20 UTC

Wind 5 kt aus 70°

Sichtweite 2000 m

feuchter Dunst

bedeckt in 100 ft

Temperatur 0.0°C

Taupunkt -1.0°C

Luftfeuchtigkeit 93%

Luftdruck 1017 hPa

ETSN 020120Z 07005KT 2000 BR OVC001 M00/M01 Q1017 RED
Keine Prognose (TAF) verfügbar.
Impressum